sensor_id;sensor_type;location;lat;lon;timestamp;P1;durP1;ratioP1;P2;durP2;ratioP2
15402;SDS011;7799;53.478;10.170;2023-05-29T00:00:07;0.80;;;0.40;;
15402;SDS011;7799;53.478;10.170;2023-05-29T00:02:38;1.03;;;0.57;;
15402;SDS011;7799;53.478;10.170;2023-05-29T00:05:05;1.33;;;0.60;;
15402;SDS011;7799;53.478;10.170;2023-05-29T00:07:32;1.30;;;0.60;;
15402;SDS011;7799;53.478;10.170;2023-05-29T00:09:58;1.13;;;0.60;;
15402;SDS011;7799;53.478;10.170;2023-05-29T00:12:25;1.00;;;0.50;;
15402;SDS011;7799;53.478;10.170;2023-05-29T00:14:52;0.70;;;0.53;;
15402;SDS011;7799;53.478;10.170;2023-05-29T00:17:20;0.70;;;0.50;;
15402;SDS011;7799;53.478;10.170;2023-05-29T00:19:46;0.47;;;0.40;;
15402;SDS011;7799;53.478;10.170;2023-05-29T00:22:13;1.07;;;0.40;;
15402;SDS011;7799;53.478;10.170;2023-05-29T00:24:40;1.20;;;0.73;;
15402;SDS011;7799;53.478;10.170;2023-05-29T00:27:06;1.13;;;0.50;;
15402;SDS011;7799;53.478;10.170;2023-05-29T00:29:33;1.43;;;0.60;;
15402;SDS011;7799;53.478;10.170;2023-05-29T00:32:01;0.60;;;0.40;;
15402;SDS011;7799;53.478;10.170;2023-05-29T00:34:29;0.53;;;0.40;;
15402;SDS011;7799;53.478;10.170;2023-05-29T00:36:56;0.57;;;0.50;;
15402;SDS011;7799;53.478;10.170;2023-05-29T00:39:23;1.13;;;0.63;;
15402;SDS011;7799;53.478;10.170;2023-05-29T00:41:49;0.67;;;0.47;;
15402;SDS011;7799;53.478;10.170;2023-05-29T00:44:17;0.90;;;0.50;;
15402;SDS011;7799;53.478;10.170;2023-05-29T00:46:44;0.87;;;0.60;;
15402;SDS011;7799;53.478;10.170;2023-05-29T00:49:11;1.07;;;0.60;;
15402;SDS011;7799;53.478;10.170;2023-05-29T00:51:40;0.70;;;0.60;;
15402;SDS011;7799;53.478;10.170;2023-05-29T00:54:07;0.70;;;0.40;;
15402;SDS011;7799;53.478;10.170;2023-05-29T00:56:34;1.17;;;0.53;;
15402;SDS011;7799;53.478;10.170;2023-05-29T00:59:01;1.97;;;0.70;;
15402;SDS011;7799;53.478;10.170;2023-05-29T01:01:28;1.70;;;0.70;;
15402;SDS011;7799;53.478;10.170;2023-05-29T01:03:57;2.03;;;0.83;;
15402;SDS011;7799;53.478;10.170;2023-05-29T01:06:26;1.77;;;0.90;;
15402;SDS011;7799;53.478;10.170;2023-05-29T01:08:54;0.80;;;0.53;;
15402;SDS011;7799;53.478;10.170;2023-05-29T01:11:23;0.80;;;0.57;;
15402;SDS011;7799;53.478;10.170;2023-05-29T01:13:54;2.13;;;0.87;;
15402;SDS011;7799;53.478;10.170;2023-05-29T01:16:25;1.97;;;1.00;;
15402;SDS011;7799;53.478;10.170;2023-05-29T01:18:57;2.07;;;0.70;;
15402;SDS011;7799;53.478;10.170;2023-05-29T01:21:27;1.77;;;0.90;;
15402;SDS011;7799;53.478;10.170;2023-05-29T01:24:13;1.97;;;0.90;;
15402;SDS011;7799;53.478;10.170;2023-05-29T01:26:46;1.33;;;0.67;;
15402;SDS011;7799;53.478;10.170;2023-05-29T01:29:14;2.13;;;0.60;;
15402;SDS011;7799;53.478;10.170;2023-05-29T01:31:42;1.43;;;0.67;;
15402;SDS011;7799;53.478;10.170;2023-05-29T01:34:10;1.13;;;0.70;;
15402;SDS011;7799;53.478;10.170;2023-05-29T01:36:37;1.13;;;0.50;;
15402;SDS011;7799;53.478;10.170;2023-05-29T01:39:04;0.50;;;0.47;;
15402;SDS011;7799;53.478;10.170;2023-05-29T01:41:31;1.47;;;0.73;;
15402;SDS011;7799;53.478;10.170;2023-05-29T01:44:01;1.23;;;0.50;;
15402;SDS011;7799;53.478;10.170;2023-05-29T01:46:33;0.70;;;0.50;;
15402;SDS011;7799;53.478;10.170;2023-05-29T01:49:00;1.30;;;0.53;;
15402;SDS011;7799;53.478;10.170;2023-05-29T01:51:27;0.93;;;0.50;;
15402;SDS011;7799;53.478;10.170;2023-05-29T01:53:56;0.77;;;0.40;;
15402;SDS011;7799;53.478;10.170;2023-05-29T01:56:23;0.87;;;0.60;;
15402;SDS011;7799;53.478;10.170;2023-05-29T01:58:51;0.77;;;0.70;;
15402;SDS011;7799;53.478;10.170;2023-05-29T02:01:20;1.27;;;0.60;;
15402;SDS011;7799;53.478;10.170;2023-05-29T02:03:47;0.40;;;0.30;;
15402;SDS011;7799;53.478;10.170;2023-05-29T02:06:14;0.57;;;0.47;;
15402;SDS011;7799;53.478;10.170;2023-05-29T02:08:41;1.10;;;0.63;;
15402;SDS011;7799;53.478;10.170;2023-05-29T02:11:07;1.10;;;0.50;;
15402;SDS011;7799;53.478;10.170;2023-05-29T02:13:34;1.70;;;0.70;;
15402;SDS011;7799;53.478;10.170;2023-05-29T02:16:01;1.70;;;0.50;;
15402;SDS011;7799;53.478;10.170;2023-05-29T02:18:29;0.90;;;0.57;;
15402;SDS011;7799;53.478;10.170;2023-05-29T02:20:56;0.80;;;0.53;;
15402;SDS011;7799;53.478;10.170;2023-05-29T02:23:23;1.50;;;0.80;;
15402;SDS011;7799;53.478;10.170;2023-05-29T02:25:50;1.20;;;0.70;;
15402;SDS011;7799;53.478;10.170;2023-05-29T02:28:16;1.10;;;0.70;;
15402;SDS011;7799;53.478;10.170;2023-05-29T02:30:43;0.90;;;0.60;;
15402;SDS011;7799;53.478;10.170;2023-05-29T02:33:10;1.00;;;0.60;;
15402;SDS011;7799;53.478;10.170;2023-05-29T02:35:38;1.07;;;0.63;;
15402;SDS011;7799;53.478;10.170;2023-05-29T02:38:04;2.13;;;0.80;;
15402;SDS011;7799;53.478;10.170;2023-05-29T02:40:31;1.80;;;0.67;;
15402;SDS011;7799;53.478;10.170;2023-05-29T02:42:58;1.00;;;0.67;;
15402;SDS011;7799;53.478;10.170;2023-05-29T02:45:24;1.63;;;0.70;;
15402;SDS011;7799;53.478;10.170;2023-05-29T02:47:53;2.50;;;0.67;;
15402;SDS011;7799;53.478;10.170;2023-05-29T02:50:20;1.67;;;0.80;;
15402;SDS011;7799;53.478;10.170;2023-05-29T02:52:48;1.77;;;0.80;;
15402;SDS011;7799;53.478;10.170;2023-05-29T02:55:15;1.60;;;0.77;;
15402;SDS011;7799;53.478;10.170;2023-05-29T02:57:42;2.30;;;0.77;;
15402;SDS011;7799;53.478;10.170;2023-05-29T03:00:09;1.77;;;0.77;;
15402;SDS011;7799;53.478;10.170;2023-05-29T03:02:38;3.20;;;1.10;;
15402;SDS011;7799;53.478;10.170;2023-05-29T03:05:05;2.10;;;1.03;;
15402;SDS011;7799;53.478;10.170;2023-05-29T03:07:33;1.53;;;0.60;;
15402;SDS011;7799;53.478;10.170;2023-05-29T03:10:02;1.37;;;0.77;;
15402;SDS011;7799;53.478;10.170;2023-05-29T03:12:30;2.10;;;0.83;;
15402;SDS011;7799;53.478;10.170;2023-05-29T03:14:56;0.93;;;0.70;;
15402;SDS011;7799;53.478;10.170;2023-05-29T03:17:25;1.10;;;0.70;;
15402;SDS011;7799;53.478;10.170;2023-05-29T03:19:52;1.00;;;0.60;;
15402;SDS011;7799;53.478;10.170;2023-05-29T03:22:19;1.27;;;0.80;;
15402;SDS011;7799;53.478;10.170;2023-05-29T03:24:46;1.77;;;1.10;;
15402;SDS011;7799;53.478;10.170;2023-05-29T03:27:14;0.73;;;0.73;;
15402;SDS011;7799;53.478;10.170;2023-05-29T03:29:42;1.60;;;0.70;;
15402;SDS011;7799;53.478;10.170;2023-05-29T03:32:09;1.50;;;0.63;;
15402;SDS011;7799;53.478;10.170;2023-05-29T03:34:35;1.03;;;0.60;;
15402;SDS011;7799;53.478;10.170;2023-05-29T03:37:04;1.13;;;0.60;;
15402;SDS011;7799;53.478;10.170;2023-05-29T03:39:31;1.77;;;0.80;;
15402;SDS011;7799;53.478;10.170;2023-05-29T03:41:58;1.47;;;0.70;;
15402;SDS011;7799;53.478;10.170;2023-05-29T03:44:26;0.90;;;0.50;;
15402;SDS011;7799;53.478;10.170;2023-05-29T03:46:53;1.30;;;0.70;;
15402;SDS011;7799;53.478;10.170;2023-05-29T03:49:20;0.87;;;0.50;;
15402;SDS011;7799;53.478;10.170;2023-05-29T03:51:46;1.70;;;1.00;;
15402;SDS011;7799;53.478;10.170;2023-05-29T03:54:13;1.57;;;0.70;;
15402;SDS011;7799;53.478;10.170;2023-05-29T03:56:42;1.13;;;0.70;;
15402;SDS011;7799;53.478;10.170;2023-05-29T03:59:11;1.03;;;0.57;;
15402;SDS011;7799;53.478;10.170;2023-05-29T04:01:39;1.27;;;0.77;;
15402;SDS011;7799;53.478;10.170;2023-05-29T04:04:06;2.13;;;1.00;;
15402;SDS011;7799;53.478;10.170;2023-05-29T04:06:32;1.37;;;0.90;;
15402;SDS011;7799;53.478;10.170;2023-05-29T04:09:04;2.10;;;1.00;;
15402;SDS011;7799;53.478;10.170;2023-05-29T04:11:31;1.57;;;0.67;;
15402;SDS011;7799;53.478;10.170;2023-05-29T04:13:59;1.83;;;0.67;;
15402;SDS011;7799;53.478;10.170;2023-05-29T04:16:26;0.90;;;0.60;;
15402;SDS011;7799;53.478;10.170;2023-05-29T04:18:54;1.63;;;0.70;;
15402;SDS011;7799;53.478;10.170;2023-05-29T04:21:24;1.90;;;0.80;;
15402;SDS011;7799;53.478;10.170;2023-05-29T04:23:52;0.83;;;0.63;;
15402;SDS011;7799;53.478;10.170;2023-05-29T04:26:19;1.00;;;0.60;;
15402;SDS011;7799;53.478;10.170;2023-05-29T04:28:50;0.77;;;0.60;;
15402;SDS011;7799;53.478;10.170;2023-05-29T04:31:23;1.07;;;0.60;;
15402;SDS011;7799;53.478;10.170;2023-05-29T04:33:52;1.67;;;0.60;;
15402;SDS011;7799;53.478;10.170;2023-05-29T04:36:23;0.70;;;0.40;;
15402;SDS011;7799;53.478;10.170;2023-05-29T04:38:55;1.67;;;0.63;;
15402;SDS011;7799;53.478;10.170;2023-05-29T04:41:22;1.13;;;0.87;;
15402;SDS011;7799;53.478;10.170;2023-05-29T04:43:55;1.90;;;0.70;;
15402;SDS011;7799;53.478;10.170;2023-05-29T04:46:25;1.07;;;0.63;;
15402;SDS011;7799;53.478;10.170;2023-05-29T04:48:52;0.70;;;0.57;;
15402;SDS011;7799;53.478;10.170;2023-05-29T04:51:19;2.10;;;1.00;;
15402;SDS011;7799;53.478;10.170;2023-05-29T04:53:49;2.57;;;1.10;;
15402;SDS011;7799;53.478;10.170;2023-05-29T04:56:17;1.80;;;0.67;;
15402;SDS011;7799;53.478;10.170;2023-05-29T04:58:46;0.73;;;0.50;;
15402;SDS011;7799;53.478;10.170;2023-05-29T05:01:13;1.20;;;0.60;;
15402;SDS011;7799;53.478;10.170;2023-05-29T05:03:40;1.13;;;0.60;;
15402;SDS011;7799;53.478;10.170;2023-05-29T05:06:07;1.20;;;0.73;;
15402;SDS011;7799;53.478;10.170;2023-05-29T05:08:34;2.67;;;0.80;;
15402;SDS011;7799;53.478;10.170;2023-05-29T05:11:03;2.10;;;1.10;;
15402;SDS011;7799;53.478;10.170;2023-05-29T05:13:32;1.60;;;0.80;;
15402;SDS011;7799;53.478;10.170;2023-05-29T05:15:59;1.37;;;0.90;;
15402;SDS011;7799;53.478;10.170;2023-05-29T05:18:27;2.10;;;1.03;;
15402;SDS011;7799;53.478;10.170;2023-05-29T05:21:01;2.83;;;0.87;;
15402;SDS011;7799;53.478;10.170;2023-05-29T05:23:29;1.60;;;0.80;;
15402;SDS011;7799;53.478;10.170;2023-05-29T05:25:56;1.03;;;0.70;;
15402;SDS011;7799;53.478;10.170;2023-05-29T05:28:24;0.90;;;0.70;;
15402;SDS011;7799;53.478;10.170;2023-05-29T05:30:50;2.13;;;1.00;;
15402;SDS011;7799;53.478;10.170;2023-05-29T05:33:17;1.30;;;0.80;;
15402;SDS011;7799;53.478;10.170;2023-05-29T05:35:44;3.40;;;1.00;;
15402;SDS011;7799;53.478;10.170;2023-05-29T05:38:11;2.33;;;1.07;;
15402;SDS011;7799;53.478;10.170;2023-05-29T05:40:38;4.30;;;0.90;;
15402;SDS011;7799;53.478;10.170;2023-05-29T05:43:13;2.50;;;0.73;;
15402;SDS011;7799;53.478;10.170;2023-05-29T05:46:13;1.77;;;0.90;;
15402;SDS011;7799;53.478;10.170;2023-05-29T05:48:41;1.37;;;0.87;;
15402;SDS011;7799;53.478;10.170;2023-05-29T05:51:08;1.70;;;0.80;;
15402;SDS011;7799;53.478;10.170;2023-05-29T05:53:36;1.83;;;1.00;;
15402;SDS011;7799;53.478;10.170;2023-05-29T05:56:03;2.13;;;1.13;;
15402;SDS011;7799;53.478;10.170;2023-05-29T05:58:30;2.83;;;1.20;;
15402;SDS011;7799;53.478;10.170;2023-05-29T06:01:00;2.27;;;0.90;;
15402;SDS011;7799;53.478;10.170;2023-05-29T06:03:29;2.67;;;1.20;;
15402;SDS011;7799;53.478;10.170;2023-05-29T06:06:04;2.60;;;0.90;;
15402;SDS011;7799;53.478;10.170;2023-05-29T06:08:32;3.17;;;1.27;;
15402;SDS011;7799;53.478;10.170;2023-05-29T06:10:58;3.40;;;1.33;;
15402;SDS011;7799;53.478;10.170;2023-05-29T06:13:25;2.10;;;1.10;;
15402;SDS011;7799;53.478;10.170;2023-05-29T06:15:57;2.27;;;1.10;;
15402;SDS011;7799;53.478;10.170;2023-05-29T06:18:24;2.47;;;1.13;;
15402;SDS011;7799;53.478;10.170;2023-05-29T06:20:52;2.20;;;1.07;;
15402;SDS011;7799;53.478;10.170;2023-05-29T06:23:19;1.70;;;1.03;;
15402;SDS011;7799;53.478;10.170;2023-05-29T06:25:46;2.20;;;0.93;;
15402;SDS011;7799;53.478;10.170;2023-05-29T06:28:13;3.13;;;1.27;;
15402;SDS011;7799;53.478;10.170;2023-05-29T06:30:40;3.03;;;1.20;;
15402;SDS011;7799;53.478;10.170;2023-05-29T06:33:07;1.97;;;0.90;;
15402;SDS011;7799;53.478;10.170;2023-05-29T06:35:37;1.97;;;0.80;;
15402;SDS011;7799;53.478;10.170;2023-05-29T06:38:05;2.40;;;0.90;;
15402;SDS011;7799;53.478;10.170;2023-05-29T06:40:32;2.27;;;1.10;;
15402;SDS011;7799;53.478;10.170;2023-05-29T06:42:58;3.53;;;1.10;;
15402;SDS011;7799;53.478;10.170;2023-05-29T06:45:48;2.07;;;1.10;;
15402;SDS011;7799;53.478;10.170;2023-05-29T06:48:16;4.40;;;1.27;;
15402;SDS011;7799;53.478;10.170;2023-05-29T06:50:45;2.37;;;1.20;;
15402;SDS011;7799;53.478;10.170;2023-05-29T06:53:34;2.67;;;1.10;;
15402;SDS011;7799;53.478;10.170;2023-05-29T06:56:01;2.33;;;1.10;;
15402;SDS011;7799;53.478;10.170;2023-05-29T06:58:29;2.40;;;1.03;;
15402;SDS011;7799;53.478;10.170;2023-05-29T07:00:56;3.50;;;1.30;;
15402;SDS011;7799;53.478;10.170;2023-05-29T07:03:32;2.67;;;1.30;;
15402;SDS011;7799;53.478;10.170;2023-05-29T07:06:01;2.60;;;1.30;;
15402;SDS011;7799;53.478;10.170;2023-05-29T07:08:28;2.03;;;1.00;;
15402;SDS011;7799;53.478;10.170;2023-05-29T07:10:56;2.90;;;1.13;;
15402;SDS011;7799;53.478;10.170;2023-05-29T07:13:24;3.33;;;1.40;;
15402;SDS011;7799;53.478;10.170;2023-05-29T07:15:51;1.60;;;0.80;;
15402;SDS011;7799;53.478;10.170;2023-05-29T07:18:23;2.80;;;1.50;;
15402;SDS011;7799;53.478;10.170;2023-05-29T07:20:49;2.60;;;1.00;;
15402;SDS011;7799;53.478;10.170;2023-05-29T07:23:18;1.70;;;1.20;;
15402;SDS011;7799;53.478;10.170;2023-05-29T07:25:45;2.47;;;0.97;;
15402;SDS011;7799;53.478;10.170;2023-05-29T07:28:13;2.77;;;1.20;;
15402;SDS011;7799;53.478;10.170;2023-05-29T07:30:41;3.53;;;1.10;;
15402;SDS011;7799;53.478;10.170;2023-05-29T07:33:08;2.93;;;1.40;;
15402;SDS011;7799;53.478;10.170;2023-05-29T07:35:35;2.97;;;1.23;;
15402;SDS011;7799;53.478;10.170;2023-05-29T07:38:03;3.33;;;1.40;;
15402;SDS011;7799;53.478;10.170;2023-05-29T07:40:31;3.47;;;1.50;;
15402;SDS011;7799;53.478;10.170;2023-05-29T07:43:28;1.87;;;1.27;;
15402;SDS011;7799;53.478;10.170;2023-05-29T07:45:58;3.57;;;1.67;;
15402;SDS011;7799;53.478;10.170;2023-05-29T07:48:25;3.53;;;1.23;;
15402;SDS011;7799;53.478;10.170;2023-05-29T07:50:52;3.60;;;1.40;;
15402;SDS011;7799;53.478;10.170;2023-05-29T07:53:19;3.77;;;1.50;;
15402;SDS011;7799;53.478;10.170;2023-05-29T07:55:46;2.53;;;1.10;;
15402;SDS011;7799;53.478;10.170;2023-05-29T07:58:13;3.13;;;1.50;;
15402;SDS011;7799;53.478;10.170;2023-05-29T08:00:44;3.47;;;1.40;;
15402;SDS011;7799;53.478;10.170;2023-05-29T08:03:11;3.40;;;1.37;;
15402;SDS011;7799;53.478;10.170;2023-05-29T08:05:44;2.43;;;1.03;;
15402;SDS011;7799;53.478;10.170;2023-05-29T08:08:12;1.70;;;1.00;;
15402;SDS011;7799;53.478;10.170;2023-05-29T08:10:40;2.23;;;0.90;;
15402;SDS011;7799;53.478;10.170;2023-05-29T08:13:06;1.77;;;1.20;;
15402;SDS011;7799;53.478;10.170;2023-05-29T08:15:35;3.73;;;1.20;;
15402;SDS011;7799;53.478;10.170;2023-05-29T08:18:03;2.77;;;1.30;;
15402;SDS011;7799;53.478;10.170;2023-05-29T08:20:30;2.77;;;1.30;;
15402;SDS011;7799;53.478;10.170;2023-05-29T08:22:56;3.53;;;1.57;;
15402;SDS011;7799;53.478;10.170;2023-05-29T08:25:23;4.17;;;1.57;;
15402;SDS011;7799;53.478;10.170;2023-05-29T08:27:50;2.90;;;1.70;;
15402;SDS011;7799;53.478;10.170;2023-05-29T08:30:16;4.83;;;2.00;;
15402;SDS011;7799;53.478;10.170;2023-05-29T08:32:43;3.13;;;1.43;;
15402;SDS011;7799;53.478;10.170;2023-05-29T08:35:13;3.00;;;1.83;;
15402;SDS011;7799;53.478;10.170;2023-05-29T08:37:39;5.60;;;2.10;;
15402;SDS011;7799;53.478;10.170;2023-05-29T08:40:07;4.17;;;1.77;;
15402;SDS011;7799;53.478;10.170;2023-05-29T08:42:36;4.23;;;1.80;;
15402;SDS011;7799;53.478;10.170;2023-05-29T08:45:03;4.00;;;1.70;;
15402;SDS011;7799;53.478;10.170;2023-05-29T08:47:31;3.40;;;1.63;;
15402;SDS011;7799;53.478;10.170;2023-05-29T08:50:00;3.93;;;2.03;;
15402;SDS011;7799;53.478;10.170;2023-05-29T08:52:29;2.10;;;1.33;;
15402;SDS011;7799;53.478;10.170;2023-05-29T08:55:00;3.20;;;1.30;;
15402;SDS011;7799;53.478;10.170;2023-05-29T08:57:27;3.00;;;1.17;;
15402;SDS011;7799;53.478;10.170;2023-05-29T08:59:54;3.33;;;1.30;;
15402;SDS011;7799;53.478;10.170;2023-05-29T09:02:22;3.07;;;1.40;;
15402;SDS011;7799;53.478;10.170;2023-05-29T09:04:48;2.70;;;1.20;;
15402;SDS011;7799;53.478;10.170;2023-05-29T09:07:17;3.60;;;1.20;;
15402;SDS011;7799;53.478;10.170;2023-05-29T09:09:46;2.57;;;1.30;;
15402;SDS011;7799;53.478;10.170;2023-05-29T09:12:12;4.30;;;1.53;;
15402;SDS011;7799;53.478;10.170;2023-05-29T09:14:41;3.03;;;1.43;;
15402;SDS011;7799;53.478;10.170;2023-05-29T09:17:10;2.57;;;1.40;;
15402;SDS011;7799;53.478;10.170;2023-05-29T09:19:37;4.00;;;1.67;;
15402;SDS011;7799;53.478;10.170;2023-05-29T09:22:06;4.30;;;1.60;;
15402;SDS011;7799;53.478;10.170;2023-05-29T09:24:35;3.37;;;1.60;;
15402;SDS011;7799;53.478;10.170;2023-05-29T09:27:04;3.17;;;1.20;;
15402;SDS011;7799;53.478;10.170;2023-05-29T09:29:33;2.90;;;1.37;;
15402;SDS011;7799;53.478;10.170;2023-05-29T09:32:00;3.30;;;1.17;;
15402;SDS011;7799;53.478;10.170;2023-05-29T09:34:27;2.27;;;1.23;;
15402;SDS011;7799;53.478;10.170;2023-05-29T09:37:00;3.03;;;1.83;;
15402;SDS011;7799;53.478;10.170;2023-05-29T09:39:33;2.53;;;1.37;;
15402;SDS011;7799;53.478;10.170;2023-05-29T09:42:00;2.53;;;1.20;;
15402;SDS011;7799;53.478;10.170;2023-05-29T09:44:29;2.73;;;1.50;;
15402;SDS011;7799;53.478;10.170;2023-05-29T09:46:57;2.63;;;1.20;;
15402;SDS011;7799;53.478;10.170;2023-05-29T09:49:24;3.70;;;1.50;;
15402;SDS011;7799;53.478;10.170;2023-05-29T09:51:52;2.90;;;1.23;;
15402;SDS011;7799;53.478;10.170;2023-05-29T09:54:19;3.13;;;1.20;;
15402;SDS011;7799;53.478;10.170;2023-05-29T09:56:46;2.77;;;1.37;;
15402;SDS011;7799;53.478;10.170;2023-05-29T09:59:14;2.57;;;1.53;;
15402;SDS011;7799;53.478;10.170;2023-05-29T10:01:44;3.83;;;1.60;;
15402;SDS011;7799;53.478;10.170;2023-05-29T10:04:11;1.87;;;1.30;;
15402;SDS011;7799;53.478;10.170;2023-05-29T10:06:41;2.50;;;1.50;;
15402;SDS011;7799;53.478;10.170;2023-05-29T10:09:12;2.70;;;1.57;;
15402;SDS011;7799;53.478;10.170;2023-05-29T10:11:40;2.30;;;1.20;;
15402;SDS011;7799;53.478;10.170;2023-05-29T10:14:09;3.03;;;1.30;;
15402;SDS011;7799;53.478;10.170;2023-05-29T10:16:38;2.87;;;1.63;;
15402;SDS011;7799;53.478;10.170;2023-05-29T10:19:09;2.40;;;1.27;;
15402;SDS011;7799;53.478;10.170;2023-05-29T10:21:39;1.77;;;1.30;;
15402;SDS011;7799;53.478;10.170;2023-05-29T10:24:09;3.90;;;1.50;;
15402;SDS011;7799;53.478;10.170;2023-05-29T10:26:38;2.57;;;1.33;;
15402;SDS011;7799;53.478;10.170;2023-05-29T10:29:08;2.80;;;1.60;;
15402;SDS011;7799;53.478;10.170;2023-05-29T10:31:39;1.73;;;1.00;;
15402;SDS011;7799;53.478;10.170;2023-05-29T10:34:14;1.93;;;1.13;;
15402;SDS011;7799;53.478;10.170;2023-05-29T10:36:49;2.87;;;1.20;;
15402;SDS011;7799;53.478;10.170;2023-05-29T10:39:22;2.53;;;1.00;;
15402;SDS011;7799;53.478;10.170;2023-05-29T10:41:48;1.30;;;1.00;;
15402;SDS011;7799;53.478;10.170;2023-05-29T10:47:12;2.00;;;1.60;;
15402;SDS011;7799;53.478;10.170;2023-05-29T10:49:45;2.57;;;1.30;;
15402;SDS011;7799;53.478;10.170;2023-05-29T10:52:16;2.00;;;1.10;;
15402;SDS011;7799;53.478;10.170;2023-05-29T10:54:52;1.85;;;1.10;;
15402;SDS011;7799;53.478;10.170;2023-05-29T10:57:20;2.03;;;1.40;;
15402;SDS011;7799;53.478;10.170;2023-05-29T10:59:48;2.33;;;1.33;;
15402;SDS011;7799;53.478;10.170;2023-05-29T11:02:24;1.58;;;1.00;;
15402;SDS011;7799;53.478;10.170;2023-05-29T11:05:05;1.60;;;1.08;;
15402;SDS011;7799;53.478;10.170;2023-05-29T11:07:32;2.15;;;1.15;;
15402;SDS011;7799;53.478;10.170;2023-05-29T11:10:10;1.58;;;1.20;;
15402;SDS011;7799;53.478;10.170;2023-05-29T11:12:40;3.60;;;1.20;;
15402;SDS011;7799;53.478;10.170;2023-05-29T11:15:21;3.25;;;1.10;;
15402;SDS011;7799;53.478;10.170;2023-05-29T11:17:49;3.35;;;1.50;;
15402;SDS011;7799;53.478;10.170;2023-05-29T11:20:30;3.15;;;1.25;;
15402;SDS011;7799;53.478;10.170;2023-05-29T11:23:03;2.53;;;1.23;;
15402;SDS011;7799;53.478;10.170;2023-05-29T11:25:33;2.75;;;1.17;;
15402;SDS011;7799;53.478;10.170;2023-05-29T11:28:01;2.83;;;1.40;;
15402;SDS011;7799;53.478;10.170;2023-05-29T11:30:29;2.30;;;1.30;;
15402;SDS011;7799;53.478;10.170;2023-05-29T11:32:57;2.60;;;1.30;;
15402;SDS011;7799;53.478;10.170;2023-05-29T11:35:29;1.52;;;1.05;;
15402;SDS011;7799;53.478;10.170;2023-05-29T11:37:56;1.50;;;0.98;;
15402;SDS011;7799;53.478;10.170;2023-05-29T11:40:23;1.70;;;0.85;;
15402;SDS011;7799;53.478;10.170;2023-05-29T11:42:50;1.88;;;1.15;;
15402;SDS011;7799;53.478;10.170;2023-05-29T11:45:18;4.22;;;1.60;;
15402;SDS011;7799;53.478;10.170;2023-05-29T11:47:52;1.42;;;0.80;;
15402;SDS011;7799;53.478;10.170;2023-05-29T11:50:19;1.85;;;1.17;;
15402;SDS011;7799;53.478;10.170;2023-05-29T11:52:48;1.55;;;0.80;;
15402;SDS011;7799;53.478;10.170;2023-05-29T11:55:16;1.83;;;0.93;;
15402;SDS011;7799;53.478;10.170;2023-05-29T11:57:43;2.88;;;0.98;;
15402;SDS011;7799;53.478;10.170;2023-05-29T12:00:12;2.13;;;1.02;;
15402;SDS011;7799;53.478;10.170;2023-05-29T12:02:40;1.33;;;0.80;;
15402;SDS011;7799;53.478;10.170;2023-05-29T12:05:08;1.98;;;0.90;;
15402;SDS011;7799;53.478;10.170;2023-05-29T12:07:35;2.55;;;1.30;;
15402;SDS011;7799;53.478;10.170;2023-05-29T12:10:12;2.00;;;1.30;;
15402;SDS011;7799;53.478;10.170;2023-05-29T12:12:46;1.63;;;0.88;;
15402;SDS011;7799;53.478;10.170;2023-05-29T12:15:13;1.63;;;1.05;;
15402;SDS011;7799;53.478;10.170;2023-05-29T12:17:40;1.23;;;0.80;;
15402;SDS011;7799;53.478;10.170;2023-05-29T12:20:07;1.42;;;1.00;;
15402;SDS011;7799;53.478;10.170;2023-05-29T12:22:36;1.25;;;0.85;;
15402;SDS011;7799;53.478;10.170;2023-05-29T12:25:04;2.22;;;0.93;;
15402;SDS011;7799;53.478;10.170;2023-05-29T12:27:33;1.75;;;1.20;;
15402;SDS011;7799;53.478;10.170;2023-05-29T12:30:06;1.25;;;0.73;;
15402;SDS011;7799;53.478;10.170;2023-05-29T12:32:35;1.58;;;1.00;;
15402;SDS011;7799;53.478;10.170;2023-05-29T12:35:09;1.35;;;0.90;;
15402;SDS011;7799;53.478;10.170;2023-05-29T12:37:41;1.63;;;0.95;;
15402;SDS011;7799;53.478;10.170;2023-05-29T12:40:08;2.28;;;0.90;;
15402;SDS011;7799;53.478;10.170;2023-05-29T12:42:38;1.55;;;0.80;;
15402;SDS011;7799;53.478;10.170;2023-05-29T12:45:06;1.63;;;0.98;;
15402;SDS011;7799;53.478;10.170;2023-05-29T12:47:34;1.33;;;0.95;;
15402;SDS011;7799;53.478;10.170;2023-05-29T12:50:05;1.40;;;0.85;;
15402;SDS011;7799;53.478;10.170;2023-05-29T12:52:43;3.20;;;1.23;;
15402;SDS011;7799;53.478;10.170;2023-05-29T12:55:10;1.73;;;1.02;;
15402;SDS011;7799;53.478;10.170;2023-05-29T12:57:38;3.03;;;1.40;;
15402;SDS011;7799;53.478;10.170;2023-05-29T13:00:06;2.08;;;0.90;;
15402;SDS011;7799;53.478;10.170;2023-05-29T13:02:36;2.17;;;1.05;;
15402;SDS011;7799;53.478;10.170;2023-05-29T13:05:03;2.08;;;1.10;;
15402;SDS011;7799;53.478;10.170;2023-05-29T13:07:31;1.83;;;1.10;;
15402;SDS011;7799;53.478;10.170;2023-05-29T13:09:58;1.52;;;0.98;;
15402;SDS011;7799;53.478;10.170;2023-05-29T13:12:25;1.40;;;1.08;;
15402;SDS011;7799;53.478;10.170;2023-05-29T13:14:53;1.05;;;0.70;;
15402;SDS011;7799;53.478;10.170;2023-05-29T13:17:21;2.33;;;1.02;;
15402;SDS011;7799;53.478;10.170;2023-05-29T13:19:48;3.45;;;1.50;;
15402;SDS011;7799;53.478;10.170;2023-05-29T13:22:14;1.75;;;0.82;;
15402;SDS011;7799;53.478;10.170;2023-05-29T13:24:41;1.63;;;1.10;;
15402;SDS011;7799;53.478;10.170;2023-05-29T13:27:08;1.70;;;1.00;;
15402;SDS011;7799;53.478;10.170;2023-05-29T13:29:34;2.30;;;1.20;;
15402;SDS011;7799;53.478;10.170;2023-05-29T13:32:02;1.67;;;1.23;;
15402;SDS011;7799;53.478;10.170;2023-05-29T13:34:29;2.25;;;1.10;;
15402;SDS011;7799;53.478;10.170;2023-05-29T13:36:56;1.33;;;0.90;;
15402;SDS011;7799;53.478;10.170;2023-05-29T13:39:22;2.35;;;1.10;;
15402;SDS011;7799;53.478;10.170;2023-05-29T13:41:50;1.67;;;1.10;;
15402;SDS011;7799;53.478;10.170;2023-05-29T13:44:16;2.08;;;0.93;;
15402;SDS011;7799;53.478;10.170;2023-05-29T13:46:43;1.52;;;0.77;;
15402;SDS011;7799;53.478;10.170;2023-05-29T13:49:11;2.45;;;1.00;;
15402;SDS011;7799;53.478;10.170;2023-05-29T13:51:38;1.27;;;0.82;;
15402;SDS011;7799;53.478;10.170;2023-05-29T13:54:04;1.35;;;0.80;;
15402;SDS011;7799;53.478;10.170;2023-05-29T13:56:31;2.70;;;1.20;;
15402;SDS011;7799;53.478;10.170;2023-05-29T13:58:57;2.28;;;1.00;;
15402;SDS011;7799;53.478;10.170;2023-05-29T14:01:30;1.08;;;0.98;;
15402;SDS011;7799;53.478;10.170;2023-05-29T14:03:57;2.05;;;1.10;;
15402;SDS011;7799;53.478;10.170;2023-05-29T14:06:25;3.25;;;1.38;;
15402;SDS011;7799;53.478;10.170;2023-05-29T14:08:55;2.42;;;1.40;;
15402;SDS011;7799;53.478;10.170;2023-05-29T14:11:22;2.75;;;1.90;;
15402;SDS011;7799;53.478;10.170;2023-05-29T14:13:48;1.95;;;1.30;;
15402;SDS011;7799;53.478;10.170;2023-05-29T14:16:15;2.25;;;1.33;;
15402;SDS011;7799;53.478;10.170;2023-05-29T14:18:42;2.25;;;1.13;;
15402;SDS011;7799;53.478;10.170;2023-05-29T14:21:08;1.92;;;1.10;;
15402;SDS011;7799;53.478;10.170;2023-05-29T14:23:37;3.25;;;1.10;;
15402;SDS011;7799;53.478;10.170;2023-05-29T14:26:04;1.85;;;1.10;;
15402;SDS011;7799;53.478;10.170;2023-05-29T14:28:31;2.17;;;1.20;;
15402;SDS011;7799;53.478;10.170;2023-05-29T14:30:58;1.90;;;1.10;;
15402;SDS011;7799;53.478;10.170;2023-05-29T14:33:24;1.15;;;0.90;;
15402;SDS011;7799;53.478;10.170;2023-05-29T14:35:51;2.47;;;1.20;;
15402;SDS011;7799;53.478;10.170;2023-05-29T14:38:17;1.73;;;0.95;;
15402;SDS011;7799;53.478;10.170;2023-05-29T14:40:46;1.50;;;1.00;;
15402;SDS011;7799;53.478;10.170;2023-05-29T14:43:12;1.50;;;1.00;;
15402;SDS011;7799;53.478;10.170;2023-05-29T14:45:39;1.45;;;0.93;;
15402;SDS011;7799;53.478;10.170;2023-05-29T14:48:06;1.30;;;0.98;;
15402;SDS011;7799;53.478;10.170;2023-05-29T14:50:33;1.70;;;1.13;;
15402;SDS011;7799;53.478;10.170;2023-05-29T14:52:59;2.13;;;1.30;;
15402;SDS011;7799;53.478;10.170;2023-05-29T14:55:26;2.28;;;0.88;;
15402;SDS011;7799;53.478;10.170;2023-05-29T14:57:54;1.52;;;1.00;;